createdAt,value
2022-10-06T00:02:23.206Z,62.46
2022-10-06T00:04:49.670Z,62.18
2022-10-06T00:07:16.217Z,63.00
2022-10-06T00:09:42.577Z,62.58
2022-10-06T00:12:09.921Z,61.83
2022-10-06T00:14:36.884Z,61.47
2022-10-06T00:17:04.082Z,61.45
2022-10-06T00:19:31.218Z,61.42
2022-10-06T00:21:57.693Z,60.50
2022-10-06T00:24:24.069Z,60.34
2022-10-06T00:26:50.554Z,60.59
2022-10-06T00:29:16.897Z,60.43
2022-10-06T00:31:43.665Z,60.34
2022-10-06T00:34:10.211Z,59.88
2022-10-06T00:36:37.154Z,59.60
2022-10-06T00:39:03.670Z,59.60
2022-10-06T00:41:30.092Z,59.23
2022-10-06T00:43:58.482Z,59.38
2022-10-06T00:46:33.055Z,59.34
2022-10-06T00:49:15.719Z,59.59
2022-10-06T00:51:48.197Z,59.28
2022-10-06T00:54:16.368Z,59.53
2022-10-06T00:56:44.204Z,59.46
2022-10-06T00:59:16.089Z,59.57
2022-10-06T01:01:51.247Z,60.01
2022-10-06T01:04:18.147Z,59.65
2022-10-06T01:06:49.792Z,59.65
2022-10-06T01:09:19.581Z,59.30
2022-10-06T01:11:49.901Z,59.67
2022-10-06T01:14:18.110Z,59.49
2022-10-06T01:16:47.666Z,59.63
2022-10-06T01:19:28.077Z,59.72
2022-10-06T01:21:57.181Z,59.42
2022-10-06T01:24:23.666Z,58.91
2022-10-06T01:26:52.242Z,59.03
2022-10-06T01:29:18.988Z,58.85
2022-10-06T01:31:45.725Z,59.07
2022-10-06T01:34:12.084Z,59.16
2022-10-06T01:36:41.150Z,58.80
2022-10-06T01:39:08.124Z,59.40
2022-10-06T01:41:34.745Z,59.08
2022-10-06T01:44:02.222Z,59.16
2022-10-06T01:46:29.866Z,59.27
2022-10-06T01:48:56.389Z,58.99
2022-10-06T01:51:23.758Z,58.94
2022-10-06T01:53:50.158Z,58.81
2022-10-06T01:56:16.941Z,58.56
2022-10-06T01:58:43.422Z,58.82
2022-10-06T02:01:10.751Z,58.89
2022-10-06T02:03:39.030Z,59.00
2022-10-06T02:06:06.296Z,59.11
2022-10-06T02:08:33.072Z,58.87
2022-10-06T02:11:09.237Z,58.92
2022-10-06T02:13:40.535Z,59.21
2022-10-06T02:16:08.466Z,59.27
2022-10-06T02:18:36.137Z,59.41
2022-10-06T02:21:03.838Z,59.34
2022-10-06T02:23:30.870Z,59.28
2022-10-06T02:26:01.898Z,59.89
2022-10-06T02:28:30.043Z,59.54
2022-10-06T02:31:08.273Z,59.83
2022-10-06T02:33:37.642Z,59.64
2022-10-06T02:36:06.509Z,59.63
2022-10-06T02:38:33.805Z,59.79
2022-10-06T02:41:02.073Z,59.94
2022-10-06T02:43:31.511Z,59.81
2022-10-06T02:46:02.627Z,59.90
2022-10-06T02:48:30.092Z,59.57
2022-10-06T02:51:02.840Z,59.67
2022-10-06T02:53:29.699Z,60.06
2022-10-06T02:56:01.407Z,59.92
2022-10-06T02:58:30.247Z,59.97
2022-10-06T03:01:02.642Z,60.02
2022-10-06T03:03:29.821Z,59.93
2022-10-06T03:06:04.362Z,60.13
2022-10-06T03:08:33.201Z,60.13
2022-10-06T03:11:02.467Z,60.35
2022-10-06T03:13:30.450Z,60.67
2022-10-06T03:15:57.781Z,60.76
2022-10-06T03:18:24.652Z,60.93
2022-10-06T03:20:51.494Z,60.72
2022-10-06T03:23:17.895Z,60.81
2022-10-06T03:25:44.317Z,60.84
2022-10-06T03:28:11.127Z,60.96
2022-10-06T03:30:37.849Z,60.77
2022-10-06T03:33:05.065Z,60.64
2022-10-06T03:35:31.424Z,61.10
2022-10-06T03:37:58.899Z,61.34
2022-10-06T03:40:25.969Z,61.14
2022-10-06T03:42:52.408Z,61.05
2022-10-06T03:45:18.878Z,61.30
2022-10-06T03:47:45.427Z,61.27
2022-10-06T03:50:12.026Z,61.30
2022-10-06T03:52:38.709Z,61.33
2022-10-06T03:55:05.546Z,61.46
2022-10-06T03:57:33.238Z,61.04
2022-10-06T04:00:00.598Z,61.04
2022-10-06T04:02:27.498Z,61.13
2022-10-06T04:04:55.902Z,61.56
2022-10-06T04:07:23.927Z,61.49
2022-10-06T04:09:50.801Z,61.63
2022-10-06T04:12:17.651Z,61.37
2022-10-06T04:14:44.223Z,61.28
2022-10-06T04:17:10.662Z,61.53
2022-10-06T04:19:39.880Z,61.51
2022-10-06T04:22:06.958Z,61.29
2022-10-06T04:24:34.297Z,61.07
2022-10-06T04:27:19.970Z,61.67
2022-10-06T04:29:56.240Z,61.60
2022-10-06T04:32:22.642Z,61.53
2022-10-06T04:34:49.285Z,61.73
2022-10-06T04:37:16.078Z,61.44
2022-10-06T04:39:43.778Z,61.47
2022-10-06T04:42:10.204Z,61.69
2022-10-06T04:44:36.836Z,61.24
2022-10-06T04:47:04.214Z,61.38
2022-10-06T04:49:31.638Z,61.47
2022-10-06T04:51:58.828Z,61.66
2022-10-06T04:54:30.035Z,61.56
2022-10-06T04:56:59.960Z,61.61
2022-10-06T04:59:47.841Z,61.72
2022-10-06T05:02:16.483Z,61.72
2022-10-06T05:04:44.019Z,61.67
2022-10-06T05:07:11.609Z,61.91
2022-10-06T05:09:38.007Z,61.95
2022-10-06T05:12:04.664Z,61.90
2022-10-06T05:14:33.297Z,61.98
2022-10-06T05:17:00.039Z,62.04
2022-10-06T05:19:26.444Z,62.06
2022-10-06T05:21:53.071Z,62.33
2022-10-06T05:24:23.701Z,62.60
2022-10-06T05:26:50.188Z,62.55
2022-10-06T05:29:16.865Z,62.39
2022-10-06T05:31:44.832Z,62.44
2022-10-06T05:34:13.206Z,62.49
2022-10-06T05:36:40.085Z,62.64
2022-10-06T05:39:07.794Z,62.53
2022-10-06T05:41:42.828Z,62.67
2022-10-06T05:44:10.749Z,62.96
2022-10-06T05:46:39.287Z,63.30
2022-10-06T05:49:09.078Z,63.45
2022-10-06T05:51:37.380Z,63.31
2022-10-06T05:54:08.126Z,63.54
2022-10-06T05:56:36.758Z,63.81
2022-10-06T05:59:05.244Z,64.07
2022-10-06T06:01:35.326Z,64.24
2022-10-06T06:04:07.996Z,64.29
2022-10-06T06:06:40.843Z,64.38
2022-10-06T06:09:14.002Z,64.49
2022-10-06T06:11:49.686Z,64.60
2022-10-06T06:14:43.834Z,64.79
2022-10-06T06:17:14.269Z,65.11
2022-10-06T06:19:40.734Z,64.89
2022-10-06T06:22:08.234Z,64.92
2022-10-06T06:24:38.228Z,64.78
2022-10-06T06:27:04.625Z,64.54
2022-10-06T06:29:31.144Z,64.65
2022-10-06T06:31:57.670Z,64.82
2022-10-06T06:34:25.240Z,64.68
2022-10-06T06:36:54.996Z,64.30
2022-10-06T06:39:21.563Z,64.22
2022-10-06T06:41:49.920Z,64.06
2022-10-06T06:44:34.742Z,63.77
2022-10-06T06:47:05.091Z,64.06
2022-10-06T06:49:31.465Z,64.42
2022-10-06T06:52:04.550Z,64.52
2022-10-06T06:54:33.496Z,64.45
2022-10-06T06:57:09.792Z,64.57
2022-10-06T06:59:38.089Z,64.64
2022-10-06T07:02:06.376Z,64.80
2022-10-06T07:04:37.356Z,64.77
2022-10-06T07:07:05.149Z,64.72
2022-10-06T07:09:35.958Z,64.54
2022-10-06T07:12:06.716Z,64.65
2022-10-06T07:14:33.114Z,64.87
2022-10-06T07:17:19.546Z,65.03
2022-10-06T07:20:07.509Z,64.92
2022-10-06T07:22:53.308Z,65.07
2022-10-06T07:25:26.809Z,65.26
2022-10-06T07:28:03.898Z,65.31
2022-10-06T07:30:40.867Z,65.39
2022-10-06T07:33:11.417Z,65.59
2022-10-06T07:35:39.472Z,65.42
2022-10-06T07:38:07.842Z,65.75
2022-10-06T07:40:46.244Z,65.64
2022-10-06T07:43:22.538Z,65.65
2022-10-06T07:45:50.170Z,65.49
2022-10-06T07:48:23.344Z,65.50
2022-10-06T07:50:53.591Z,65.54
2022-10-06T07:53:27.926Z,65.24
2022-10-06T07:56:08.525Z,65.23
2022-10-06T07:58:41.695Z,65.34
2022-10-06T08:01:11.276Z,65.44
2022-10-06T08:03:38.526Z,65.21
2022-10-06T08:06:05.532Z,65.60
2022-10-06T08:08:37.829Z,65.42
2022-10-06T08:11:05.550Z,65.14
2022-10-06T08:13:32.166Z,64.76
2022-10-06T08:16:06.811Z,64.57
2022-10-06T08:18:45.900Z,64.37
2022-10-06T08:21:16.074Z,64.31
2022-10-06T08:23:43.417Z,64.34
2022-10-06T08:26:11.513Z,64.16
2022-10-06T08:28:39.108Z,64.22
2022-10-06T08:31:07.998Z,63.70
2022-10-06T08:33:38.098Z,62.57
2022-10-06T08:36:08.572Z,61.96
2022-10-06T08:38:36.996Z,61.99
2022-10-06T08:41:25.297Z,61.57
2022-10-06T08:43:58.013Z,61.40
2022-10-06T08:46:30.095Z,61.59
2022-10-06T08:48:58.345Z,61.42
2022-10-06T08:51:50.602Z,61.43
2022-10-06T08:54:35.517Z,61.29
2022-10-06T08:57:16.457Z,60.71
2022-10-06T08:59:48.025Z,59.88
2022-10-06T09:02:29.778Z,59.71
2022-10-06T09:05:01.378Z,59.50
2022-10-06T09:07:59.260Z,59.46
2022-10-06T09:10:39.126Z,59.39
2022-10-06T09:13:12.529Z,58.97
2022-10-06T09:15:46.770Z,58.71
2022-10-06T09:18:22.159Z,58.36
2022-10-06T09:21:06.125Z,57.91
2022-10-06T09:23:49.962Z,57.74
2022-10-06T09:26:18.193Z,57.15
2022-10-06T09:28:48.063Z,56.70
2022-10-06T09:31:37.854Z,56.46
2022-10-06T09:34:34.798Z,55.95
2022-10-06T09:37:04.831Z,55.83
2022-10-06T09:39:36.355Z,55.78
2022-10-06T09:42:12.382Z,55.30
2022-10-06T09:44:55.386Z,55.91
2022-10-06T09:47:36.754Z,56.10
2022-10-06T09:50:12.096Z,55.64
2022-10-06T09:52:40.171Z,55.40
2022-10-06T09:55:15.170Z,55.81
2022-10-06T09:57:53.230Z,55.77
2022-10-06T10:00:35.777Z,55.84
2022-10-06T10:03:12.032Z,56.46
2022-10-06T10:05:46.489Z,56.52
2022-10-06T10:08:12.791Z,57.04
2022-10-06T10:10:40.231Z,56.74
2022-10-06T10:13:24.281Z,55.70
2022-10-06T10:16:00.665Z,56.02
2022-10-06T10:18:32.119Z,56.29
2022-10-06T10:21:10.296Z,56.34
2022-10-06T10:23:40.473Z,56.02
2022-10-06T10:26:17.286Z,55.92
2022-10-06T10:32:13.398Z,56.06
2022-10-06T10:34:59.171Z,56.23
2022-10-06T10:37:35.813Z,56.68
2022-10-06T10:40:17.299Z,56.84
2022-10-06T10:43:10.777Z,57.32
2022-10-06T10:45:46.428Z,57.08
2022-10-06T10:48:22.942Z,57.23
2022-10-06T10:50:51.067Z,56.49
2022-10-06T10:53:50.834Z,56.32
2022-10-06T10:56:21.278Z,56.15
2022-10-06T10:58:52.549Z,55.65
2022-10-06T11:01:44.491Z,55.10
2022-10-06T11:04:12.687Z,55.04
2022-10-06T11:06:52.902Z,54.70
2022-10-06T11:09:29.200Z,54.67
2022-10-06T11:12:26.028Z,54.75
2022-10-06T11:15:03.422Z,54.73
2022-10-06T11:17:44.910Z,54.48
2022-10-06T11:20:33.897Z,54.17
2022-10-06T11:23:25.078Z,54.35
2022-10-06T11:26:18.283Z,54.59
2022-10-06T11:28:58.511Z,53.86
2022-10-06T11:31:43.979Z,54.11
2022-10-06T11:34:10.983Z,53.98
2022-10-06T11:37:02.449Z,54.79
2022-10-06T11:39:40.908Z,54.71
2022-10-06T11:42:38.749Z,54.94
2022-10-06T11:45:13.778Z,54.59
2022-10-06T11:48:17.576Z,54.64
2022-10-06T11:50:44.571Z,54.98
2022-10-06T11:53:28.333Z,54.63
2022-10-06T11:56:16.534Z,54.04
2022-10-06T11:58:51.928Z,53.40
2022-10-06T12:01:30.442Z,54.10
2022-10-06T12:04:08.980Z,53.82
2022-10-06T12:06:45.053Z,53.88
2022-10-06T12:09:23.575Z,53.61
2022-10-06T12:12:01.248Z,54.29
2022-10-06T12:17:37.641Z,55.17
2022-10-06T12:20:55.182Z,54.07
2022-10-06T12:23:39.129Z,53.43
2022-10-06T12:26:35.989Z,53.98
2022-10-06T12:29:26.319Z,53.80
2022-10-06T12:31:52.685Z,53.62
2022-10-06T12:34:51.822Z,53.95
2022-10-06T12:37:28.744Z,53.09
2022-10-06T12:40:36.447Z,53.17
2022-10-06T12:43:18.004Z,53.10
2022-10-06T12:45:46.971Z,53.26
2022-10-06T12:48:35.127Z,53.30
2022-10-06T12:51:20.625Z,54.00
2022-10-06T12:54:09.647Z,54.00
2022-10-06T12:56:38.386Z,54.13
2022-10-06T12:59:27.294Z,54.41
2022-10-06T13:01:58.237Z,54.29
2022-10-06T13:04:31.625Z,52.79
2022-10-06T13:06:58.188Z,52.51
2022-10-06T13:09:24.619Z,52.01
2022-10-06T13:11:51.030Z,52.86
2022-10-06T13:14:17.384Z,52.57
2022-10-06T13:16:47.917Z,51.97
2022-10-06T13:19:24.372Z,52.51
2022-10-06T13:21:51.227Z,52.56
2022-10-06T13:24:21.553Z,52.34
2022-10-06T13:26:48.212Z,52.51
2022-10-06T13:29:24.082Z,51.76
2022-10-06T13:31:53.503Z,51.08
2022-10-06T13:34:43.200Z,51.25
2022-10-06T13:37:14.688Z,51.77
2022-10-06T13:39:41.167Z,51.78
2022-10-06T13:42:17.731Z,51.63
2022-10-06T13:44:54.033Z,51.75
2022-10-06T13:47:24.444Z,51.75
2022-10-06T13:50:01.949Z,51.55
2022-10-06T13:52:44.506Z,51.43
2022-10-06T13:55:15.424Z,51.57
2022-10-06T13:58:08.622Z,51.69
2022-10-06T14:00:57.968Z,52.11
2022-10-06T14:03:25.966Z,52.00
2022-10-06T14:06:18.884Z,51.78
2022-10-06T14:08:51.530Z,52.18
2022-10-06T14:11:27.152Z,52.76
2022-10-06T14:14:00.871Z,52.99
2022-10-06T14:16:29.426Z,52.39
2022-10-06T14:18:59.771Z,52.87
2022-10-06T14:21:32.878Z,52.75
2022-10-06T14:24:03.632Z,52.77
2022-10-06T14:26:37.387Z,52.28
2022-10-06T14:29:03.964Z,53.07
2022-10-06T14:31:33.816Z,52.16
2022-10-06T14:34:01.471Z,52.34
2022-10-06T14:36:32.151Z,52.38
2022-10-06T14:38:59.575Z,52.52
2022-10-06T14:41:29.303Z,52.23
2022-10-06T14:44:03.563Z,52.58
2022-10-06T14:46:30.086Z,52.14
2022-10-06T14:48:57.571Z,52.23
2022-10-06T14:51:26.172Z,51.49
2022-10-06T14:53:54.307Z,51.37
2022-10-06T14:56:31.622Z,51.65
2022-10-06T14:59:04.988Z,52.04
2022-10-06T15:01:33.621Z,51.69
2022-10-06T15:04:09.353Z,51.64
2022-10-06T15:06:54.327Z,51.01
2022-10-06T15:09:20.686Z,51.01
2022-10-06T15:11:47.292Z,51.25
2022-10-06T15:14:13.646Z,51.90
2022-10-06T15:16:42.242Z,51.87
2022-10-06T15:19:11.891Z,51.48
2022-10-06T15:21:40.070Z,51.06
2022-10-06T15:24:10.610Z,51.35
2022-10-06T15:26:55.412Z,52.04
2022-10-06T15:29:21.898Z,51.61
2022-10-06T15:31:54.528Z,51.79
2022-10-06T15:34:25.159Z,51.46
2022-10-06T15:36:53.236Z,51.90
2022-10-06T15:39:21.630Z,52.04
2022-10-06T15:41:48.477Z,52.23
2022-10-06T15:44:16.298Z,52.43
2022-10-06T15:46:45.679Z,52.39
2022-10-06T15:49:16.902Z,52.20
2022-10-06T15:51:48.906Z,52.10
2022-10-06T15:54:20.872Z,52.43
2022-10-06T15:56:52.692Z,52.87
2022-10-06T15:59:23.852Z,53.17
2022-10-06T16:02:00.389Z,53.03
2022-10-06T16:04:35.940Z,53.23
2022-10-06T16:07:04.200Z,54.11
2022-10-06T16:09:33.130Z,53.80
2022-10-06T16:12:02.513Z,54.10
2022-10-06T16:14:29.734Z,54.11
2022-10-06T16:16:59.746Z,54.12
2022-10-06T16:19:27.804Z,54.06
2022-10-06T16:21:58.788Z,54.58
2022-10-06T16:24:26.602Z,54.70
2022-10-06T16:26:54.226Z,54.50
2022-10-06T16:29:21.646Z,54.88
2022-10-06T16:31:48.586Z,54.57
2022-10-06T16:34:15.326Z,55.00
2022-10-06T16:36:42.194Z,54.73
2022-10-06T16:39:13.746Z,54.71
2022-10-06T16:41:40.368Z,55.11
2022-10-06T16:44:12.618Z,54.84
2022-10-06T16:46:39.464Z,54.57
2022-10-06T16:49:07.353Z,54.44
2022-10-06T16:51:37.413Z,54.07
2022-10-06T16:54:06.285Z,54.62
2022-10-06T16:56:44.419Z,54.30
2022-10-06T16:59:22.414Z,54.44
2022-10-06T17:01:50.100Z,54.39
2022-10-06T17:04:19.162Z,54.67
2022-10-06T17:06:47.813Z,55.15
2022-10-06T17:09:18.736Z,54.97
2022-10-06T17:11:48.042Z,54.88
2022-10-06T17:14:14.883Z,55.08
2022-10-06T17:16:44.348Z,55.14
2022-10-06T17:19:16.349Z,55.04
2022-10-06T17:21:46.637Z,55.09
2022-10-06T17:24:14.358Z,55.27
2022-10-06T17:26:43.029Z,55.88
2022-10-06T17:29:14.801Z,55.49
2022-10-06T17:31:42.934Z,55.31
2022-10-06T17:34:12.564Z,55.68
2022-10-06T17:36:41.177Z,55.82
2022-10-06T17:39:10.589Z,56.11
2022-10-06T17:41:40.020Z,56.10
2022-10-06T17:44:22.679Z,56.52
2022-10-06T17:46:52.027Z,56.38
2022-10-06T17:49:20.686Z,57.01
2022-10-06T17:51:48.089Z,56.75
2022-10-06T17:54:18.039Z,56.82
2022-10-06T17:56:46.447Z,56.84
2022-10-06T17:59:16.246Z,56.94
2022-10-06T18:01:44.777Z,56.69
2022-10-06T18:04:15.999Z,57.25
2022-10-06T18:06:43.712Z,56.97
2022-10-06T18:09:10.145Z,57.09
2022-10-06T18:11:41.930Z,57.50
2022-10-06T18:14:12.302Z,57.55
2022-10-06T18:16:45.077Z,57.38
2022-10-06T18:19:14.002Z,57.33
2022-10-06T18:21:42.301Z,57.48
2022-10-06T18:24:16.311Z,57.61
2022-10-06T18:26:44.246Z,57.79
2022-10-06T18:29:11.192Z,57.71
2022-10-06T18:31:39.026Z,57.98
2022-10-06T18:36:53.001Z,58.45
2022-10-06T18:39:19.552Z,58.38
2022-10-06T18:41:47.452Z,58.40
2022-10-06T18:44:13.830Z,58.26
2022-10-06T18:46:58.676Z,58.59
2022-10-06T18:49:25.217Z,58.70
2022-10-06T18:51:58.092Z,59.10
2022-10-06T18:54:26.985Z,58.97
2022-10-06T18:56:54.910Z,59.03
2022-10-06T18:59:26.170Z,59.10
2022-10-06T19:01:54.474Z,59.31
2022-10-06T19:04:22.358Z,59.40
2022-10-06T19:06:50.905Z,59.34
2022-10-06T19:09:19.209Z,59.54
2022-10-06T19:11:55.682Z,59.71
2022-10-06T19:14:35.609Z,59.70
2022-10-06T19:17:13.806Z,59.97
2022-10-06T19:19:45.544Z,60.09
2022-10-06T19:22:14.202Z,60.27
2022-10-06T19:24:43.453Z,60.33
2022-10-06T19:27:13.138Z,60.39
2022-10-06T19:29:45.274Z,60.48
2022-10-06T19:32:16.090Z,60.96
2022-10-06T19:34:43.245Z,61.06
2022-10-06T19:37:09.829Z,61.27
2022-10-06T19:39:42.748Z,61.22
2022-10-06T19:42:30.376Z,61.18
2022-10-06T19:44:56.867Z,61.22
2022-10-06T19:47:23.729Z,61.05
2022-10-06T19:49:50.100Z,61.54
2022-10-06T19:52:16.686Z,61.56
2022-10-06T19:54:43.263Z,61.70
2022-10-06T19:57:11.281Z,61.52
2022-10-06T19:59:38.478Z,61.89
2022-10-06T20:02:08.561Z,61.58
2022-10-06T20:04:35.625Z,61.88
2022-10-06T20:07:02.242Z,62.06
2022-10-06T20:09:33.803Z,62.17
2022-10-06T20:12:01.347Z,62.15
2022-10-06T20:14:28.429Z,62.71
2022-10-06T20:16:56.410Z,62.40
2022-10-06T20:19:25.263Z,62.51
2022-10-06T20:21:52.698Z,62.31
2022-10-06T20:24:24.822Z,62.64
2022-10-06T20:26:53.261Z,62.53
2022-10-06T20:29:22.811Z,62.34
2022-10-06T20:31:52.700Z,62.44
2022-10-06T20:34:21.927Z,62.81
2022-10-06T20:36:53.104Z,63.01
2022-10-06T20:39:40.991Z,62.85
2022-10-06T20:42:12.196Z,62.99
2022-10-06T20:44:41.969Z,63.01
2022-10-06T20:47:08.857Z,63.17
2022-10-06T20:49:35.215Z,63.04
2022-10-06T20:52:03.163Z,63.01
2022-10-06T20:54:34.703Z,63.29
2022-10-06T20:57:03.784Z,65.21
2022-10-06T20:59:30.935Z,63.84
2022-10-06T21:01:59.669Z,63.49
2022-10-06T21:04:27.358Z,63.44
2022-10-06T21:06:53.718Z,63.33
2022-10-06T21:09:20.311Z,63.15
2022-10-06T21:11:47.670Z,63.25
2022-10-06T21:14:15.472Z,63.57
2022-10-06T21:16:43.808Z,63.86
2022-10-06T21:19:14.402Z,63.91
2022-10-06T21:21:42.567Z,63.67
2022-10-06T21:24:09.510Z,63.89
2022-10-06T21:26:38.475Z,63.89
2022-10-06T21:29:04.985Z,64.12
2022-10-06T21:31:32.039Z,64.25
2022-10-06T21:33:59.115Z,64.46
2022-10-06T21:36:27.124Z,64.27
2022-10-06T21:38:58.148Z,64.40
2022-10-06T21:41:31.322Z,64.69
2022-10-06T21:44:09.371Z,64.39
2022-10-06T21:46:38.698Z,64.47
2022-10-06T21:49:07.404Z,64.57
2022-10-06T21:51:33.824Z,64.56
2022-10-06T21:54:01.390Z,64.68
2022-10-06T21:56:31.202Z,64.76
2022-10-06T21:58:58.585Z,64.54
2022-10-06T22:01:27.972Z,64.47
2022-10-06T22:03:55.509Z,64.69
2022-10-06T22:06:22.222Z,64.66
2022-10-06T22:08:48.995Z,64.72
2022-10-06T22:11:17.325Z,64.87
2022-10-06T22:13:46.575Z,64.93
2022-10-06T22:16:18.228Z,65.13
2022-10-06T22:18:45.832Z,65.09
2022-10-06T22:21:19.255Z,65.14
2022-10-06T22:23:48.014Z,64.89
2022-10-06T22:26:15.734Z,65.29
2022-10-06T22:28:47.866Z,65.24
2022-10-06T22:31:16.352Z,65.03
2022-10-06T22:33:44.108Z,65.22
2022-10-06T22:36:13.761Z,65.25
2022-10-06T22:38:40.974Z,64.90
2022-10-06T22:41:10.142Z,65.16
2022-10-06T22:43:37.247Z,65.03
2022-10-06T22:46:06.745Z,65.13
2022-10-06T22:48:33.211Z,64.97
2022-10-06T22:50:59.574Z,64.89
2022-10-06T22:53:30.007Z,64.80
2022-10-06T22:55:56.837Z,65.15
2022-10-06T22:58:23.504Z,64.85
2022-10-06T23:00:49.878Z,64.93
2022-10-06T23:03:17.747Z,65.06
2022-10-06T23:05:54.120Z,64.91
2022-10-06T23:08:20.462Z,65.06
2022-10-06T23:10:46.801Z,64.97
2022-10-06T23:13:13.136Z,65.10
2022-10-06T23:15:39.494Z,65.23
2022-10-06T23:18:07.940Z,65.14
2022-10-06T23:20:34.755Z,65.33
2022-10-06T23:23:01.220Z,65.22
2022-10-06T23:25:27.616Z,65.12
2022-10-06T23:27:54.190Z,65.61
2022-10-06T23:30:20.644Z,65.61
2022-10-06T23:32:47.008Z,65.56
2022-10-06T23:35:13.368Z,65.83
2022-10-06T23:37:39.724Z,65.85
2022-10-06T23:40:06.644Z,65.81
2022-10-06T23:42:33.032Z,65.81
2022-10-06T23:44:59.383Z,65.63
2022-10-06T23:47:25.774Z,65.72
2022-10-06T23:49:52.113Z,65.71
2022-10-06T23:52:18.468Z,65.73
2022-10-06T23:54:44.916Z,66.04
2022-10-06T23:57:11.303Z,65.94
2022-10-06T23:59:37.685Z,65.93
